CheckWX is a tool to help pilots better visualize weather data.  It is not intended as a substitute for an official pre-flight weather briefing.

06:58:24 UTC

KLAX TAF
Los Angeles International Airport
Los Angeles, California, USA
KLAX 210522Z 2106/2212 24008KT P6SM SKC FM210800 VRB03KT P6SM SKC FM211900 26012KT P6SM SKC FM220600 VRB03KT P6SM SKC

Sep-21@
06:00 UTC

Sep-21 @ 06:00 UTC

Sep-21@
08:00 UTC

Sep-21 @ 08:00 UTC

KLAX 210522Z 2106/2212 24008KT P6SM SKC
Wind
  • 240° at 8 KTS
Cloud Levels
  • Clear skies

Sep-21@
08:00 UTC

Sep-21 @ 08:00 UTC

Sep-21@
19:00 UTC

Sep-21 @ 19:00 UTC

FM210800 VRB03KT P6SM SKC

From

From Standard forecast or significant change

Wind
  • Variable at 3 KTS
Cloud Levels
  • Clear skies

Sep-21@
19:00 UTC

Sep-21 @ 19:00 UTC

Sep-22@
06:00 UTC

Sep-22 @ 06:00 UTC

FM211900 26012KT P6SM SKC

From

From Standard forecast or significant change

Wind
  • 260° at 12 KTS
Cloud Levels
  • Clear skies

Sep-22@
06:00 UTC

Sep-22 @ 06:00 UTC

Sep-22@
12:00 UTC

Sep-22 @ 12:00 UTC

FM220600 VRB03KT P6SM SKC

From

From Standard forecast or significant change

Wind
  • Variable at 3 KTS
Cloud Levels
  • Clear skies